createdAt,value
2023-01-29T00:01:31.445Z,34.80
2023-01-29T00:03:59.026Z,43.43
2023-01-29T00:06:26.615Z,36.00
2023-01-29T00:08:55.563Z,41.37
2023-01-29T00:11:24.049Z,39.17
2023-01-29T00:13:51.936Z,38.00
2023-01-29T00:16:19.643Z,30.97
2023-01-29T00:18:47.845Z,36.23
2023-01-29T00:21:17.275Z,35.07
2023-01-29T00:24:41.090Z,34.07
2023-01-29T00:27:10.830Z,32.40
2023-01-29T00:29:38.406Z,31.53
2023-01-29T00:32:06.441Z,30.27
2023-01-29T00:34:34.103Z,33.13
2023-01-29T00:37:08.810Z,34.40
2023-01-29T00:39:47.706Z,32.23
2023-01-29T00:42:34.591Z,34.27
2023-01-29T00:45:02.180Z,33.53
2023-01-29T00:47:33.354Z,30.10
2023-01-29T00:50:01.695Z,31.97
2023-01-29T00:52:29.858Z,30.90
2023-01-29T00:54:58.944Z,31.83
2023-01-29T00:57:31.042Z,31.00
2023-01-29T00:59:58.677Z,29.00
2023-01-29T01:02:44.282Z,28.80
2023-01-29T01:05:18.079Z,32.40
2023-01-29T01:07:46.241Z,28.53
2023-01-29T01:10:21.162Z,34.93
2023-01-29T01:12:51.960Z,28.47
2023-01-29T01:15:20.245Z,30.23
2023-01-29T01:17:48.804Z,30.80
2023-01-29T01:20:16.943Z,29.23
2023-01-29T01:22:44.684Z,29.50
2023-01-29T01:25:12.281Z,28.63
2023-01-29T01:27:41.283Z,28.97
2023-01-29T01:30:14.536Z,29.37
2023-01-29T01:32:43.553Z,28.70
2023-01-29T01:35:13.682Z,24.30
2023-01-29T01:37:41.641Z,26.83
2023-01-29T01:40:17.993Z,24.67
2023-01-29T01:42:48.300Z,27.00
2023-01-29T01:45:23.251Z,25.27
2023-01-29T01:47:55.576Z,22.93
2023-01-29T01:50:27.865Z,29.70
2023-01-29T01:53:00.945Z,30.47
2023-01-29T01:55:31.177Z,24.23
2023-01-29T01:58:03.396Z,27.30
2023-01-29T02:00:32.367Z,29.43
2023-01-29T02:03:20.070Z,28.50
2023-01-29T02:06:06.244Z,22.97
2023-01-29T02:08:57.519Z,26.00
2023-01-29T02:11:26.198Z,24.13
2023-01-29T02:13:54.495Z,27.50
2023-01-29T02:16:24.664Z,27.47
2023-01-29T02:18:52.606Z,25.77
2023-01-29T02:21:51.640Z,26.50
2023-01-29T02:24:54.281Z,29.70
2023-01-29T02:27:28.155Z,29.80
2023-01-29T02:30:06.898Z,27.13
2023-01-29T02:32:54.684Z,28.03
2023-01-29T02:35:32.027Z,30.60
2023-01-29T02:38:12.863Z,29.67
2023-01-29T02:40:45.122Z,28.70
2023-01-29T02:43:24.368Z,27.97
2023-01-29T02:46:01.240Z,31.07
2023-01-29T02:48:39.912Z,27.27
2023-01-29T02:51:15.052Z,25.43
2023-01-29T02:53:52.118Z,29.70
2023-01-29T02:56:25.088Z,28.43
2023-01-29T02:58:58.402Z,32.27
2023-01-29T03:01:33.921Z,30.20
2023-01-29T03:04:08.071Z,27.20
2023-01-29T03:06:39.529Z,30.07
2023-01-29T03:09:12.342Z,30.97
2023-01-29T03:11:43.308Z,30.00
2023-01-29T03:14:16.860Z,32.60
2023-01-29T03:16:49.987Z,26.07
2023-01-29T03:19:20.401Z,28.77
2023-01-29T03:21:59.065Z,25.20
2023-01-29T03:24:52.692Z,27.50
2023-01-29T03:27:42.109Z,31.13
2023-01-29T03:30:29.926Z,25.07
2023-01-29T03:33:01.921Z,28.93
2023-01-29T03:35:35.361Z,30.20
2023-01-29T03:38:04.428Z,28.97
2023-01-29T03:40:39.607Z,29.97
2023-01-29T03:43:13.194Z,28.77
2023-01-29T03:45:51.331Z,30.93
2023-01-29T03:48:33.133Z,31.63
2023-01-29T03:51:13.130Z,31.43
2023-01-29T03:53:45.311Z,29.70
2023-01-29T03:56:23.641Z,31.07
2023-01-29T03:58:57.625Z,29.63
2023-01-29T04:01:31.134Z,31.93
2023-01-29T04:04:06.755Z,32.53
2023-01-29T04:06:38.926Z,28.80
2023-01-29T04:09:13.533Z,30.87
2023-01-29T04:11:46.120Z,29.97
2023-01-29T04:14:15.343Z,30.80
2023-01-29T04:16:49.134Z,32.80
2023-01-29T04:19:18.229Z,31.97
2023-01-29T04:21:50.210Z,33.77
2023-01-29T04:24:18.594Z,31.03
2023-01-29T04:27:06.306Z,30.67
2023-01-29T04:29:48.489Z,33.13
2023-01-29T04:32:23.113Z,34.73
2023-01-29T04:35:01.921Z,31.37
2023-01-29T04:37:38.678Z,32.23
2023-01-29T04:40:19.201Z,32.33
2023-01-29T04:42:56.142Z,32.67
2023-01-29T04:45:34.138Z,32.37
2023-01-29T04:48:10.758Z,27.40
2023-01-29T04:50:45.268Z,28.57
2023-01-29T04:53:19.553Z,31.50
2023-01-29T04:55:52.313Z,29.17
2023-01-29T04:58:27.761Z,33.43
2023-01-29T05:00:56.175Z,30.53
2023-01-29T05:03:27.593Z,32.50
2023-01-29T05:05:59.374Z,33.57
2023-01-29T05:08:29.477Z,35.70
2023-01-29T05:10:58.674Z,31.77
2023-01-29T05:13:27.773Z,32.33
2023-01-29T05:16:00.580Z,27.77
2023-01-29T05:18:29.502Z,30.00
2023-01-29T05:21:04.142Z,33.43
2023-01-29T05:23:31.942Z,32.13
2023-01-29T05:25:59.750Z,27.37
2023-01-29T05:28:26.360Z,34.23
2023-01-29T05:30:56.505Z,32.27
2023-01-29T05:33:25.597Z,35.00
2023-01-29T05:35:53.296Z,33.07
2023-01-29T05:38:22.843Z,30.43
2023-01-29T05:40:50.648Z,32.43
2023-01-29T05:43:20.113Z,33.37
2023-01-29T05:45:54.063Z,31.20
2023-01-29T05:48:21.717Z,38.40
2023-01-29T05:50:49.646Z,37.43
2023-01-29T05:53:17.423Z,31.13
2023-01-29T05:55:47.178Z,30.27
2023-01-29T05:58:15.211Z,34.23
2023-01-29T06:00:43.170Z,33.93
2023-01-29T06:03:10.792Z,31.67
2023-01-29T06:05:39.079Z,33.50
2023-01-29T06:08:07.938Z,33.80
2023-01-29T06:10:36.004Z,30.97
2023-01-29T06:13:04.992Z,35.00
2023-01-29T06:15:32.587Z,31.67
2023-01-29T06:18:00.206Z,32.33
2023-01-29T06:20:27.854Z,33.00
2023-01-29T06:22:55.493Z,33.17
2023-01-29T06:25:23.106Z,32.93
2023-01-29T06:27:51.653Z,32.30
2023-01-29T06:30:20.976Z,36.77
2023-01-29T06:32:48.570Z,34.47
2023-01-29T06:35:16.203Z,36.83
2023-01-29T06:37:43.795Z,32.13
2023-01-29T06:40:12.534Z,33.50
2023-01-29T06:42:40.265Z,34.87
2023-01-29T06:45:08.959Z,32.57
2023-01-29T06:47:37.984Z,32.33
2023-01-29T06:50:06.324Z,34.73
2023-01-29T06:52:34.075Z,38.20
2023-01-29T06:55:01.657Z,37.93
2023-01-29T06:57:30.830Z,37.43
2023-01-29T06:59:58.406Z,35.43
2023-01-29T07:02:26.091Z,35.73
2023-01-29T07:04:55.142Z,32.87
2023-01-29T07:07:22.778Z,36.03
2023-01-29T07:09:50.367Z,38.60
2023-01-29T07:12:18.013Z,36.43
2023-01-29T07:14:45.572Z,39.13
2023-01-29T07:17:13.172Z,37.10
2023-01-29T07:19:40.749Z,35.00
2023-01-29T07:22:09.662Z,39.27
2023-01-29T07:24:37.247Z,37.97
2023-01-29T07:27:04.825Z,33.53
2023-01-29T07:29:32.414Z,35.83
2023-01-29T07:32:00.107Z,39.37
2023-01-29T07:34:27.749Z,38.90
2023-01-29T07:36:56.798Z,36.87
2023-01-29T07:39:25.939Z,38.33
2023-01-29T07:41:53.515Z,38.37
2023-01-29T07:44:21.097Z,36.03
2023-01-29T07:46:48.695Z,39.67
2023-01-29T07:49:16.572Z,41.00
2023-01-29T07:51:44.144Z,39.03
2023-01-29T07:54:11.743Z,41.50
2023-01-29T07:56:40.705Z,40.10
2023-01-29T07:59:08.293Z,40.20
2023-01-29T08:01:36.074Z,39.70
2023-01-29T08:04:03.683Z,44.20
2023-01-29T08:06:31.284Z,44.73
2023-01-29T08:08:59.701Z,46.43
2023-01-29T08:11:27.283Z,46.30
2023-01-29T08:13:57.218Z,47.10
2023-01-29T08:16:24.847Z,48.90
2023-01-29T08:18:52.511Z,52.50
2023-01-29T08:21:22.488Z,53.10
2023-01-29T08:23:50.053Z,52.10
2023-01-29T08:26:17.677Z,54.97
2023-01-29T08:28:45.368Z,53.90
2023-01-29T08:31:20.480Z,53.13
2023-01-29T08:33:48.424Z,55.90
2023-01-29T08:36:16.081Z,58.27
2023-01-29T08:38:43.706Z,65.53
2023-01-29T08:41:11.291Z,57.77
2023-01-29T08:43:38.928Z,60.73
2023-01-29T08:46:07.816Z,63.30
2023-01-29T08:48:36.931Z,64.57
2023-01-29T08:51:05.188Z,64.33
2023-01-29T08:53:33.206Z,65.83
2023-01-29T08:56:00.861Z,65.97
2023-01-29T08:58:28.446Z,61.13
2023-01-29T09:00:56.305Z,67.07
2023-01-29T09:03:23.954Z,67.83
2023-01-29T09:05:52.895Z,70.33
2023-01-29T09:08:20.514Z,65.27
2023-01-29T09:10:48.091Z,69.87
2023-01-29T09:13:15.854Z,66.53
2023-01-29T09:15:43.429Z,77.50
2023-01-29T09:18:11.152Z,68.03
2023-01-29T09:20:38.929Z,73.47
2023-01-29T09:23:09.596Z,77.13
2023-01-29T09:25:38.348Z,82.03
2023-01-29T09:28:07.160Z,84.73
2023-01-29T09:30:37.576Z,78.80
2023-01-29T09:33:05.592Z,79.07
2023-01-29T09:35:34.112Z,75.90
2023-01-29T09:38:01.729Z,87.97
2023-01-29T09:40:37.332Z,81.27
2023-01-29T09:43:08.709Z,80.93
2023-01-29T09:45:37.761Z,80.37
2023-01-29T09:48:06.728Z,78.73
2023-01-29T09:50:38.497Z,80.10
2023-01-29T09:53:13.445Z,81.20
2023-01-29T09:55:47.338Z,77.43
2023-01-29T09:58:20.563Z,77.00
2023-01-29T10:00:55.438Z,83.97
2023-01-29T10:03:38.273Z,76.33
2023-01-29T10:06:22.182Z,77.30
2023-01-29T10:09:16.013Z,74.63
2023-01-29T10:11:58.227Z,78.80
2023-01-29T10:14:37.785Z,80.50
2023-01-29T10:17:22.843Z,73.50
2023-01-29T10:20:11.195Z,83.63
2023-01-29T10:22:59.969Z,78.57
2023-01-29T10:25:28.169Z,84.23
2023-01-29T10:27:59.898Z,78.57
2023-01-29T10:30:34.114Z,77.03
2023-01-29T10:33:05.111Z,82.60
2023-01-29T10:35:36.794Z,74.20
2023-01-29T10:38:22.396Z,76.27
2023-01-29T10:40:56.939Z,75.37
2023-01-29T10:43:37.588Z,78.27
2023-01-29T10:46:15.331Z,72.17
2023-01-29T10:48:54.558Z,71.20
2023-01-29T10:51:36.435Z,68.80
2023-01-29T10:54:15.718Z,62.90
2023-01-29T10:56:55.950Z,64.83
2023-01-29T10:59:50.036Z,61.40
2023-01-29T11:02:22.047Z,59.47
2023-01-29T11:04:49.997Z,55.87
2023-01-29T11:07:20.360Z,52.70
2023-01-29T11:09:56.581Z,51.60
2023-01-29T11:12:30.317Z,52.90
2023-01-29T11:15:05.561Z,53.17
2023-01-29T11:17:33.303Z,47.27
2023-01-29T11:20:00.933Z,47.67
2023-01-29T11:22:29.899Z,55.80
2023-01-29T11:25:16.415Z,50.67
2023-01-29T11:27:46.732Z,53.57
2023-01-29T11:30:28.175Z,49.27
2023-01-29T11:33:07.821Z,48.13
2023-01-29T11:35:36.504Z,46.30
2023-01-29T11:38:10.267Z,45.80
2023-01-29T11:40:41.548Z,43.30
2023-01-29T11:43:20.972Z,51.27
2023-01-29T11:45:52.251Z,48.30
2023-01-29T11:48:22.405Z,44.03
2023-01-29T11:50:56.123Z,44.03
2023-01-29T11:53:29.074Z,47.13
2023-01-29T11:55:57.033Z,43.77
2023-01-29T11:58:30.404Z,43.27
2023-01-29T12:01:01.092Z,40.23
2023-01-29T12:03:35.365Z,40.83
2023-01-29T12:06:07.671Z,41.40
2023-01-29T12:08:38.475Z,40.37
2023-01-29T12:11:12.581Z,44.03
2023-01-29T12:13:43.186Z,41.70
2023-01-29T12:16:22.539Z,41.00
2023-01-29T12:18:54.845Z,39.80
2023-01-29T12:21:31.331Z,42.57
2023-01-29T12:24:02.664Z,36.63
2023-01-29T12:26:33.717Z,36.63
2023-01-29T12:29:16.474Z,40.47
2023-01-29T12:31:53.293Z,38.77
2023-01-29T12:34:28.389Z,37.87
2023-01-29T12:37:00.442Z,38.67
2023-01-29T12:39:28.259Z,41.23
2023-01-29T12:42:03.358Z,47.20
2023-01-29T12:44:34.579Z,42.90
2023-01-29T12:47:08.377Z,44.87
2023-01-29T12:49:40.571Z,44.80
2023-01-29T12:52:13.472Z,40.17
2023-01-29T12:54:46.777Z,42.07
2023-01-29T12:57:22.033Z,43.40
2023-01-29T12:59:56.208Z,40.27
2023-01-29T13:02:33.448Z,42.03
2023-01-29T13:05:05.636Z,40.33
2023-01-29T13:07:37.508Z,41.10
2023-01-29T13:10:12.823Z,36.17
2023-01-29T13:12:47.112Z,42.60
2023-01-29T13:15:24.197Z,39.97
2023-01-29T13:17:58.735Z,36.50
2023-01-29T13:20:30.481Z,38.10
2023-01-29T13:23:04.437Z,36.10
2023-01-29T13:25:32.156Z,34.67
2023-01-29T13:27:59.780Z,34.03
2023-01-29T13:30:30.514Z,36.90
2023-01-29T13:33:10.294Z,35.13
2023-01-29T13:35:41.968Z,36.17
2023-01-29T13:38:24.706Z,37.60
2023-01-29T13:40:52.498Z,34.13
2023-01-29T13:43:22.702Z,32.57
2023-01-29T13:45:53.804Z,34.90
2023-01-29T13:48:27.629Z,35.73
2023-01-29T13:50:57.372Z,35.07
2023-01-29T13:53:27.866Z,34.50
2023-01-29T13:55:55.587Z,33.37
2023-01-29T13:58:53.750Z,32.50
2023-01-29T14:02:03.915Z,36.80
2023-01-29T14:04:34.040Z,36.23
2023-01-29T14:07:17.723Z,32.03
2023-01-29T14:10:04.119Z,36.77
2023-01-29T14:12:40.088Z,34.47
2023-01-29T14:15:22.648Z,33.63
2023-01-29T14:18:19.750Z,35.50
2023-01-29T14:21:07.451Z,36.17
2023-01-29T14:23:44.279Z,38.57
2023-01-29T14:26:25.064Z,42.27
2023-01-29T14:28:57.362Z,35.20
2023-01-29T14:31:37.688Z,41.23
2023-01-29T14:34:09.006Z,41.90
2023-01-29T14:36:42.825Z,41.50
2023-01-29T14:39:23.373Z,40.10
2023-01-29T14:41:52.806Z,42.17
2023-01-29T14:44:49.421Z,50.27
2023-01-29T14:47:20.551Z,60.00
2023-01-29T14:49:52.581Z,74.53
2023-01-29T14:52:26.592Z,46.07
2023-01-29T14:54:58.421Z,46.40
2023-01-29T14:57:26.651Z,42.00
2023-01-29T14:59:58.034Z,45.73
2023-01-29T15:02:33.680Z,42.57
2023-01-29T15:05:04.511Z,41.30
2023-01-29T15:07:39.394Z,45.97
2023-01-29T15:10:24.107Z,47.87
2023-01-29T15:12:56.858Z,49.43
2023-01-29T15:15:33.209Z,44.03
2023-01-29T15:18:06.459Z,40.57
2023-01-29T15:20:35.794Z,41.57
2023-01-29T15:23:06.120Z,44.47
2023-01-29T15:25:37.824Z,43.10
2023-01-29T15:28:10.129Z,42.23
2023-01-29T15:30:38.833Z,42.70
2023-01-29T15:33:11.618Z,44.67
2023-01-29T15:35:41.843Z,42.20
2023-01-29T15:38:17.918Z,46.47
2023-01-29T15:40:53.813Z,43.77
2023-01-29T15:43:23.417Z,41.90
2023-01-29T15:45:52.060Z,43.77
2023-01-29T15:48:23.908Z,44.20
2023-01-29T15:50:54.990Z,38.00
2023-01-29T15:53:37.376Z,43.20
2023-01-29T15:56:09.850Z,47.90
2023-01-29T15:58:40.248Z,43.67
2023-01-29T16:01:08.185Z,44.27
2023-01-29T16:03:38.428Z,44.00
2023-01-29T16:06:08.701Z,43.17
2023-01-29T16:08:41.020Z,41.03
2023-01-29T16:11:09.769Z,46.80
2023-01-29T16:13:41.680Z,53.20
2023-01-29T16:16:21.465Z,57.17
2023-01-29T16:18:59.878Z,47.73
2023-01-29T16:21:31.386Z,61.07
2023-01-29T16:24:03.579Z,45.10
2023-01-29T16:26:34.976Z,46.93
2023-01-29T16:29:06.355Z,45.10
2023-01-29T16:31:34.637Z,43.43
2023-01-29T16:34:07.990Z,45.47
2023-01-29T16:36:35.794Z,43.60
2023-01-29T16:39:14.055Z,43.40
2023-01-29T16:41:41.730Z,41.87
2023-01-29T16:44:33.635Z,44.53
2023-01-29T16:47:12.690Z,40.97
2023-01-29T16:49:46.498Z,42.60
2023-01-29T16:52:20.190Z,43.20
2023-01-29T16:54:49.201Z,41.53
2023-01-29T16:57:20.485Z,40.67
2023-01-29T16:59:48.612Z,43.80
2023-01-29T17:02:23.494Z,39.90
2023-01-29T17:04:53.259Z,42.10
2023-01-29T17:07:22.234Z,39.97
2023-01-29T17:09:54.218Z,38.27
2023-01-29T17:12:26.126Z,40.70
2023-01-29T17:14:55.750Z,44.40
2023-01-29T17:17:30.181Z,45.03
2023-01-29T17:19:58.596Z,40.97
2023-01-29T17:22:26.190Z,42.43
2023-01-29T17:24:55.190Z,44.43
2023-01-29T17:27:24.033Z,40.03
2023-01-29T17:29:52.753Z,41.70
2023-01-29T17:32:21.222Z,41.57
2023-01-29T17:34:48.859Z,41.60
2023-01-29T17:37:17.434Z,40.30
2023-01-29T17:39:47.264Z,39.80
2023-01-29T17:42:16.379Z,40.20
2023-01-29T17:44:44.085Z,44.70
2023-01-29T17:47:14.978Z,43.70
2023-01-29T17:49:43.096Z,47.07
2023-01-29T17:52:10.845Z,42.80
2023-01-29T17:54:38.639Z,43.20
2023-01-29T17:57:06.228Z,43.83
2023-01-29T17:59:35.181Z,46.53
2023-01-29T18:02:02.824Z,46.20
2023-01-29T18:04:30.431Z,44.33
2023-01-29T18:06:58.910Z,46.90
2023-01-29T18:09:27.376Z,48.07
2023-01-29T18:11:55.001Z,46.27
2023-01-29T18:14:22.587Z,50.73
2023-01-29T18:16:51.533Z,49.83
2023-01-29T18:19:23.029Z,50.57
2023-01-29T18:21:52.448Z,48.97
2023-01-29T18:24:20.736Z,46.47
2023-01-29T18:26:48.768Z,50.53
2023-01-29T18:29:16.425Z,50.17
2023-01-29T18:31:44.226Z,50.60
2023-01-29T18:34:13.300Z,51.90
2023-01-29T18:36:40.871Z,53.80
2023-01-29T18:39:08.529Z,53.20
2023-01-29T18:41:36.164Z,49.57
2023-01-29T18:44:03.825Z,52.47
2023-01-29T18:46:31.410Z,54.70
2023-01-29T18:48:58.990Z,53.77
2023-01-29T18:51:28.070Z,57.90
2023-01-29T18:53:55.687Z,55.63
2023-01-29T18:56:23.290Z,56.63
2023-01-29T18:58:55.788Z,59.07
2023-01-29T19:01:24.646Z,69.00
2023-01-29T19:03:52.279Z,67.20
2023-01-29T19:06:19.936Z,65.97
2023-01-29T19:08:48.995Z,71.60
2023-01-29T19:11:18.170Z,70.57
2023-01-29T19:13:47.858Z,72.73
2023-01-29T19:16:15.435Z,73.40
2023-01-29T19:18:43.556Z,73.60
2023-01-29T19:21:13.075Z,80.57
2023-01-29T19:23:41.088Z,69.87
2023-01-29T19:26:10.283Z,77.97
2023-01-29T19:28:38.016Z,76.87
2023-01-29T19:31:05.956Z,81.97
2023-01-29T19:33:33.704Z,79.83
2023-01-29T19:36:01.390Z,79.80
2023-01-29T19:38:33.255Z,74.47
2023-01-29T19:41:01.239Z,77.97
2023-01-29T19:43:31.626Z,77.30
2023-01-29T19:46:00.302Z,77.07
2023-01-29T19:48:28.947Z,75.23
2023-01-29T19:50:57.697Z,75.97
2023-01-29T19:53:25.692Z,73.57
2023-01-29T19:56:00.795Z,82.20
2023-01-29T19:58:29.324Z,85.00
2023-01-29T20:00:59.868Z,81.33
2023-01-29T20:03:28.778Z,76.37
2023-01-29T20:05:56.892Z,81.73
2023-01-29T20:08:24.822Z,79.23
2023-01-29T20:10:52.401Z,73.90
2023-01-29T20:13:20.037Z,80.23
2023-01-29T20:15:48.408Z,77.53
2023-01-29T20:18:18.069Z,80.27
2023-01-29T20:20:47.975Z,72.87
2023-01-29T20:23:25.065Z,71.40
2023-01-29T20:26:03.744Z,79.93
2023-01-29T20:28:31.448Z,78.63
2023-01-29T20:30:59.194Z,76.17
2023-01-29T20:33:29.024Z,77.70
2023-01-29T20:35:57.860Z,74.77
2023-01-29T20:38:30.101Z,79.77
2023-01-29T20:41:03.042Z,77.00
2023-01-29T20:43:30.724Z,76.53
2023-01-29T20:45:58.672Z,70.27
2023-01-29T20:48:26.515Z,73.73
2023-01-29T20:50:55.854Z,69.33
2023-01-29T20:53:23.572Z,76.77
2023-01-29T20:55:51.335Z,71.57
2023-01-29T20:58:19.205Z,73.87
2023-01-29T21:00:47.627Z,73.20
2023-01-29T21:03:15.288Z,73.63
2023-01-29T21:05:42.923Z,67.27
2023-01-29T21:08:11.949Z,72.90
2023-01-29T21:10:40.164Z,69.97
2023-01-29T21:13:08.688Z,68.40
2023-01-29T21:15:36.310Z,67.90
2023-01-29T21:18:05.143Z,77.37
2023-01-29T21:20:33.043Z,71.70
2023-01-29T21:23:04.155Z,70.30
2023-01-29T21:25:34.270Z,77.93
2023-01-29T21:28:03.637Z,69.43
2023-01-29T21:30:31.544Z,69.63
2023-01-29T21:32:59.159Z,71.07
2023-01-29T21:35:27.068Z,67.40
2023-01-29T21:37:54.968Z,65.73
2023-01-29T21:40:24.962Z,66.00
2023-01-29T21:43:12.659Z,70.70
2023-01-29T21:45:40.977Z,72.83
2023-01-29T21:48:09.015Z,68.20
2023-01-29T21:50:37.046Z,69.80
2023-01-29T21:53:05.325Z,70.37
2023-01-29T21:55:33.445Z,60.73
2023-01-29T21:58:02.466Z,64.97
2023-01-29T22:00:30.059Z,64.23
2023-01-29T22:02:57.873Z,60.73
2023-01-29T22:05:26.438Z,60.93
2023-01-29T22:07:54.012Z,65.07
2023-01-29T22:10:22.330Z,64.10
2023-01-29T22:12:50.267Z,66.03
2023-01-29T22:15:19.369Z,60.03
2023-01-29T22:17:47.088Z,66.23
2023-01-29T22:20:16.209Z,60.63
2023-01-29T22:22:44.007Z,60.03
2023-01-29T22:25:11.765Z,60.87
2023-01-29T22:27:39.396Z,66.77
2023-01-29T22:30:08.397Z,57.67
2023-01-29T22:32:37.464Z,60.37
2023-01-29T22:35:05.678Z,68.20
2023-01-29T22:37:33.263Z,64.63
2023-01-29T22:40:00.854Z,62.83
2023-01-29T22:42:28.817Z,63.87
2023-01-29T22:44:56.498Z,66.00
2023-01-29T22:47:24.175Z,66.67
2023-01-29T22:49:53.112Z,69.90
2023-01-29T22:52:22.493Z,72.03
2023-01-29T22:54:51.368Z,72.37
2023-01-29T22:57:19.249Z,69.60
2023-01-29T22:59:46.932Z,63.63
2023-01-29T23:02:14.506Z,65.27
2023-01-29T23:04:42.147Z,68.97
2023-01-29T23:07:11.315Z,72.27
2023-01-29T23:09:38.948Z,67.13
2023-01-29T23:12:07.865Z,64.70
2023-01-29T23:14:35.565Z,66.23
2023-01-29T23:17:03.186Z,75.13
2023-01-29T23:19:30.943Z,72.43
2023-01-29T23:21:58.753Z,69.93
2023-01-29T23:24:27.715Z,79.07
2023-01-29T23:27:12.940Z,73.50
2023-01-29T23:29:40.520Z,69.43
2023-01-29T23:32:08.129Z,81.73
2023-01-29T23:34:35.751Z,73.40
2023-01-29T23:37:03.423Z,69.67
2023-01-29T23:39:32.425Z,73.10
2023-01-29T23:42:00.119Z,71.57
2023-01-29T23:44:27.845Z,73.17
2023-01-29T23:46:55.953Z,75.60
2023-01-29T23:49:23.625Z,74.73
2023-01-29T23:51:51.611Z,74.33
2023-01-29T23:54:19.250Z,74.47
2023-01-29T23:56:48.237Z,71.27
2023-01-29T23:59:16.140Z,70.77
